Terminal Aerodrome Forecast
Issued by NWS

Home | Current Version | Previous Version | Text Only | Print | Product List | Glossary On
Versions: 1 2 3 4 5 6 7 8 9 10 11 12
919
FTUS43 KICT 042339
TAFHUT
TAF
KHUT 042339Z 0500/0524 VRB05KT P6SM FEW250
     FM050500 VRB03KT P6SM BKN250
     FM051500 13005KT P6SM SCT120 OVC200
     FM052000 22012KT P6SM BKN120=

USA.gov is the U.S. government's official web portal to all federal, state and local government web resources and services.